createdAt,value
2018-04-26T00:00:33.312Z,0.00
2018-04-26T00:01:33.177Z,0.00
2018-04-26T00:02:33.221Z,0.00
2018-04-26T00:03:33.128Z,0.00
2018-04-26T00:04:33.133Z,0.00
2018-04-26T00:05:33.073Z,0.00
2018-04-26T00:06:33.143Z,0.00
2018-04-26T00:07:33.023Z,0.00
2018-04-26T00:08:33.052Z,0.00
2018-04-26T00:09:32.972Z,0.00
2018-04-26T00:10:32.964Z,0.00
2018-04-26T00:11:32.923Z,0.00
2018-04-26T00:12:32.977Z,0.00
2018-04-26T00:13:32.872Z,0.00
2018-04-26T00:14:32.887Z,0.00
2018-04-26T00:15:32.820Z,0.00
2018-04-26T00:16:32.900Z,0.00
2018-04-26T00:17:32.768Z,0.00
2018-04-26T00:18:32.808Z,0.00
2018-04-26T00:19:32.720Z,0.00
2018-04-26T00:20:32.723Z,0.00
2018-04-26T00:21:32.665Z,0.00
2018-04-26T00:22:32.733Z,0.00
2018-04-26T00:23:32.618Z,0.00
2018-04-26T00:24:32.644Z,0.00
2018-04-26T00:25:32.565Z,0.00
2018-04-26T00:26:32.555Z,0.00
2018-04-26T00:27:32.512Z,0.00
2018-04-26T00:28:32.564Z,0.00
2018-04-26T00:29:32.468Z,0.00
2018-04-26T00:30:32.475Z,0.00
2018-04-26T00:31:32.413Z,0.00
2018-04-26T00:32:32.490Z,0.00
2018-04-26T00:33:32.362Z,0.00
2018-04-26T00:34:32.397Z,0.00
2018-04-26T00:35:32.311Z,0.00
2018-04-26T00:36:32.308Z,0.00
2018-04-26T00:37:32.258Z,0.00
2018-04-26T00:38:32.324Z,0.00
2018-04-26T00:39:32.206Z,0.00
2018-04-26T00:40:32.233Z,0.00
2018-04-26T00:41:32.158Z,0.00
2018-04-26T00:42:32.246Z,0.00
2018-04-26T00:43:32.104Z,0.00
2018-04-26T00:44:32.159Z,0.00
2018-04-26T00:45:32.053Z,0.00
2018-04-26T00:46:32.063Z,0.00
2018-04-26T00:47:32.001Z,0.00
2018-04-26T00:48:32.075Z,0.00
2018-04-26T00:49:31.953Z,0.00
2018-04-26T00:50:31.986Z,0.00
2018-04-26T00:51:31.899Z,0.00
2018-04-26T00:52:31.897Z,0.00
2018-04-26T00:53:31.851Z,0.00
2018-04-26T00:54:31.910Z,0.00
2018-04-26T00:55:31.797Z,0.00
2018-04-26T00:56:31.818Z,0.00
2018-04-26T00:57:31.746Z,0.00
2018-04-26T00:58:31.830Z,0.00
2018-04-26T00:59:31.697Z,0.00
2018-04-26T01:00:31.740Z,0.00
2018-04-26T01:01:31.644Z,0.00
2018-04-26T01:02:31.651Z,0.00
2018-04-26T01:03:31.593Z,0.00
2018-04-26T01:04:31.663Z,0.00
2018-04-26T01:05:31.541Z,0.00
2018-04-26T01:06:31.573Z,0.00
2018-04-26T01:07:31.493Z,0.00
2018-04-26T01:08:31.484Z,0.00
2018-04-26T01:09:31.440Z,0.00
2018-04-26T01:10:31.494Z,0.00
2018-04-26T01:11:31.388Z,0.00
2018-04-26T01:12:31.404Z,0.00
2018-04-26T01:13:31.337Z,0.00
2018-04-26T01:14:31.417Z,0.00
2018-04-26T01:15:31.279Z,0.00
2018-04-26T01:16:31.329Z,0.00
2018-04-26T01:17:31.235Z,0.00
2018-04-26T01:18:31.237Z,0.00
2018-04-26T01:19:31.187Z,0.00
2018-04-26T01:20:31.252Z,0.00
2018-04-26T01:21:31.133Z,0.00
2018-04-26T01:22:31.168Z,0.00
2018-04-26T01:23:31.085Z,0.00
2018-04-26T01:24:31.073Z,0.00
2018-04-26T01:25:31.031Z,0.00
2018-04-26T01:26:31.086Z,0.00
2018-04-26T01:27:30.978Z,0.00
2018-04-26T01:28:30.995Z,0.00
2018-04-26T01:29:30.928Z,0.00
2018-04-26T01:30:31.007Z,0.00
2018-04-26T01:31:30.877Z,0.00
2018-04-26T01:32:30.917Z,0.00
2018-04-26T01:33:30.827Z,0.00
2018-04-26T01:34:30.832Z,0.00
2018-04-26T01:35:30.774Z,0.00
2018-04-26T01:36:30.838Z,0.00
2018-04-26T01:37:30.725Z,0.00
2018-04-26T01:38:30.750Z,0.00
2018-04-26T01:39:30.673Z,0.00
2018-04-26T01:40:30.764Z,0.00
2018-04-26T01:41:30.623Z,0.00
2018-04-26T01:42:30.678Z,0.00
2018-04-26T01:43:30.571Z,0.00
2018-04-26T01:44:30.580Z,0.00
2018-04-26T01:45:30.520Z,0.00
2018-04-26T01:46:30.595Z,0.00
2018-04-26T01:47:30.469Z,0.00
2018-04-26T01:48:30.506Z,0.00
2018-04-26T01:49:30.417Z,0.00
2018-04-26T01:50:30.415Z,0.00
2018-04-26T01:51:30.367Z,0.00
2018-04-26T01:52:33.294Z,0.00
2018-04-26T01:53:30.317Z,0.00
2018-04-26T01:54:30.337Z,0.00
2018-04-26T01:55:30.264Z,0.00
2018-04-26T01:56:30.351Z,0.00
2018-04-26T01:57:30.213Z,0.00
2018-04-26T01:58:30.259Z,0.00
2018-04-26T01:59:30.165Z,0.00
2018-04-26T02:00:30.173Z,0.00
2018-04-26T02:01:30.110Z,0.00
2018-04-26T02:02:30.185Z,0.00
2018-04-26T02:03:30.063Z,0.00
2018-04-26T02:04:30.093Z,0.00
2018-04-26T02:05:30.010Z,0.00
2018-04-26T02:06:30.008Z,0.00
2018-04-26T02:07:29.957Z,0.00
2018-04-26T02:08:30.014Z,0.00
2018-04-26T02:09:29.908Z,0.00
2018-04-26T02:10:29.925Z,0.00
2018-04-26T02:11:29.855Z,0.00
2018-04-26T02:12:29.939Z,0.00
2018-04-26T02:13:29.804Z,0.00
2018-04-26T02:14:29.848Z,0.00
2018-04-26T02:15:29.754Z,0.00
2018-04-26T02:16:29.757Z,0.00
2018-04-26T02:17:29.704Z,0.00
2018-04-26T02:18:29.773Z,0.00
2018-04-26T02:19:29.650Z,0.00
2018-04-26T02:20:29.680Z,0.00
2018-04-26T02:21:29.598Z,0.00
2018-04-26T02:22:29.590Z,0.00
2018-04-26T02:23:29.548Z,0.00
2018-04-26T02:24:30.626Z,0.00
2018-04-26T02:25:29.497Z,0.00
2018-04-26T02:26:29.514Z,0.00
2018-04-26T02:27:29.446Z,0.00
2018-04-26T02:28:29.528Z,0.00
2018-04-26T02:29:29.398Z,0.00
2018-04-26T02:30:29.440Z,0.00
2018-04-26T02:31:29.345Z,0.00
2018-04-26T02:32:29.344Z,0.00
2018-04-26T02:33:29.294Z,0.00
2018-04-26T02:34:29.366Z,0.00
2018-04-26T02:35:29.240Z,0.00
2018-04-26T02:36:29.268Z,0.00
2018-04-26T02:37:29.190Z,0.00
2018-04-26T02:38:29.183Z,0.00
2018-04-26T02:39:29.144Z,0.00
2018-04-26T02:40:29.195Z,0.00
2018-04-26T02:41:29.090Z,0.00
2018-04-26T02:42:29.103Z,0.00
2018-04-26T02:43:29.040Z,0.00
2018-04-26T02:44:29.115Z,0.00
2018-04-26T02:45:28.989Z,0.00
2018-04-26T02:46:29.026Z,0.00
2018-04-26T02:47:28.936Z,0.00
2018-04-26T02:48:28.933Z,0.00
2018-04-26T02:49:28.884Z,0.00
2018-04-26T02:50:28.945Z,0.00
2018-04-26T02:51:28.833Z,0.00
2018-04-26T02:52:28.857Z,0.00
2018-04-26T02:53:28.780Z,0.00
2018-04-26T02:54:28.869Z,0.00
2018-04-26T02:55:28.729Z,0.00
2018-04-26T02:56:28.780Z,0.00
2018-04-26T02:57:28.680Z,0.00
2018-04-26T02:58:28.691Z,0.00
2018-04-26T02:59:28.629Z,0.00
2018-04-26T03:00:28.705Z,0.00
2018-04-26T03:01:28.577Z,0.00
2018-04-26T03:02:28.610Z,0.00
2018-04-26T03:03:28.524Z,0.00
2018-04-26T03:04:28.524Z,0.00
2018-04-26T03:05:28.477Z,0.00
2018-04-26T03:06:28.535Z,0.00
2018-04-26T03:07:28.422Z,0.00
2018-04-26T03:08:28.443Z,0.00
2018-04-26T03:09:28.379Z,0.00
2018-04-26T03:10:28.459Z,0.00
2018-04-26T03:11:28.323Z,0.00
2018-04-26T03:12:28.360Z,0.00
2018-04-26T03:13:28.272Z,0.00
2018-04-26T03:14:28.275Z,0.00
2018-04-26T03:15:28.218Z,0.00
2018-04-26T03:16:28.281Z,0.00
2018-04-26T03:17:28.167Z,0.00
2018-04-26T03:18:28.203Z,0.00
2018-04-26T03:19:28.114Z,0.00
2018-04-26T03:20:28.104Z,0.00
2018-04-26T03:21:28.064Z,0.00
2018-04-26T03:22:28.120Z,0.00
2018-04-26T03:23:28.015Z,0.00
2018-04-26T03:24:28.030Z,0.00
2018-04-26T03:25:27.961Z,0.00
2018-04-26T03:26:28.055Z,0.00
2018-04-26T03:27:27.910Z,0.00
2018-04-26T03:28:27.954Z,0.00
2018-04-26T03:29:27.859Z,0.00
2018-04-26T03:30:27.866Z,0.00
2018-04-26T03:31:27.813Z,0.00
2018-04-26T03:32:27.881Z,0.00
2018-04-26T03:33:27.756Z,0.00
2018-04-26T03:34:27.786Z,0.00
2018-04-26T03:35:27.703Z,0.00
2018-04-26T03:36:27.699Z,0.00
2018-04-26T03:37:27.727Z,0.00
2018-04-26T03:38:27.711Z,0.00
2018-04-26T03:39:27.601Z,0.00
2018-04-26T03:40:27.620Z,0.00
2018-04-26T03:41:27.553Z,0.00
2018-04-26T03:42:27.633Z,0.00
2018-04-26T03:43:27.501Z,0.00
2018-04-26T03:44:27.543Z,0.00
2018-04-26T03:45:27.449Z,0.00
2018-04-26T03:46:27.451Z,0.00
2018-04-26T03:47:27.396Z,0.00
2018-04-26T03:48:27.472Z,0.00
2018-04-26T03:49:27.345Z,0.00
2018-04-26T03:50:27.376Z,0.00
2018-04-26T03:51:27.296Z,0.00
2018-04-26T03:52:27.286Z,4.00
2018-04-26T03:53:27.242Z,0.00
2018-04-26T03:54:27.299Z,0.00
2018-04-26T03:55:27.189Z,4.00
2018-04-26T03:56:27.209Z,4.00
2018-04-26T03:57:27.143Z,0.00
2018-04-26T03:58:27.219Z,4.00
2018-04-26T03:59:27.087Z,4.00
2018-04-26T04:00:27.210Z,4.00
2018-04-26T04:01:27.037Z,4.00
2018-04-26T04:02:27.042Z,8.00
2018-04-26T04:03:26.986Z,4.00
2018-04-26T04:04:27.053Z,8.00
2018-04-26T04:05:26.934Z,8.00
2018-04-26T04:06:26.963Z,12.00
2018-04-26T04:07:26.882Z,12.00
2018-04-26T04:08:26.874Z,12.00
2018-04-26T04:09:26.831Z,16.00
2018-04-26T04:10:26.885Z,16.00
2018-04-26T04:11:26.779Z,24.00
2018-04-26T04:12:26.796Z,24.00
2018-04-26T04:13:26.728Z,28.00
2018-04-26T04:14:26.809Z,32.00
2018-04-26T04:15:26.677Z,36.00
2018-04-26T04:16:26.725Z,40.00
2018-04-26T04:17:26.626Z,40.00
2018-04-26T04:18:26.630Z,44.00
2018-04-26T04:19:26.574Z,48.00
2018-04-26T04:20:26.644Z,52.00
2018-04-26T04:21:26.527Z,60.00
2018-04-26T04:22:26.551Z,64.00
2018-04-26T04:23:26.472Z,68.00
2018-04-26T04:24:26.461Z,68.00
2018-04-26T04:25:26.421Z,76.00
2018-04-26T04:26:26.474Z,80.00
2018-04-26T04:27:26.372Z,88.00
2018-04-26T04:28:26.383Z,96.00
2018-04-26T04:29:26.316Z,104.00
2018-04-26T04:30:26.396Z,112.00
2018-04-26T04:31:26.265Z,124.00
2018-04-26T04:32:26.306Z,132.00
2018-04-26T04:33:26.213Z,144.00
2018-04-26T04:34:26.219Z,156.00
2018-04-26T04:35:26.235Z,164.00
2018-04-26T04:36:26.230Z,168.00
2018-04-26T04:37:26.112Z,164.00
2018-04-26T04:38:26.142Z,152.00
2018-04-26T04:39:26.060Z,144.00
2018-04-26T04:40:26.048Z,128.00
2018-04-26T04:41:26.011Z,124.00
2018-04-26T04:42:26.061Z,120.00
2018-04-26T04:43:25.957Z,112.00
2018-04-26T04:44:26.996Z,108.00
2018-04-26T04:45:25.906Z,112.00
2018-04-26T04:46:25.986Z,128.00
2018-04-26T04:47:25.853Z,136.00
2018-04-26T04:48:25.897Z,140.00
2018-04-26T04:49:25.803Z,148.00
2018-04-26T04:50:25.803Z,132.00
2018-04-26T04:51:25.756Z,100.00
2018-04-26T04:52:25.820Z,84.00
2018-04-26T04:53:25.699Z,76.00
2018-04-26T04:54:25.729Z,76.00
2018-04-26T04:55:25.652Z,80.00
2018-04-26T04:56:25.639Z,80.00
2018-04-26T04:57:25.598Z,76.00
2018-04-26T04:58:25.649Z,68.00
2018-04-26T04:59:25.580Z,80.00
2018-04-26T05:00:25.561Z,92.00
2018-04-26T05:01:25.494Z,92.00
2018-04-26T05:02:25.571Z,92.00
2018-04-26T05:03:25.442Z,80.00
2018-04-26T05:04:25.496Z,92.00
2018-04-26T05:05:25.395Z,116.00
2018-04-26T05:06:25.392Z,132.00
2018-04-26T05:07:25.418Z,124.00
2018-04-26T05:08:25.407Z,108.00
2018-04-26T05:09:25.290Z,96.00
2018-04-26T05:10:25.391Z,112.00
2018-04-26T05:11:25.239Z,124.00
2018-04-26T05:12:25.303Z,140.00
2018-04-26T05:13:25.188Z,140.00
2018-04-26T05:14:25.359Z,144.00
2018-04-26T05:15:25.136Z,148.00
2018-04-26T05:16:25.110Z,144.00
2018-04-26T05:17:25.234Z,148.00
2018-04-26T05:18:25.066Z,148.00
2018-04-26T05:19:25.148Z,148.00
2018-04-26T05:20:25.010Z,160.00
2018-04-26T05:21:25.165Z,164.00
2018-04-26T05:22:24.957Z,176.00
2018-04-26T05:23:25.073Z,180.00
2018-04-26T05:24:24.905Z,200.00
2018-04-26T05:25:24.984Z,180.00
2018-04-26T05:26:24.858Z,160.00
2018-04-26T05:27:24.999Z,156.00
2018-04-26T05:28:24.804Z,148.00
2018-04-26T05:29:24.912Z,144.00
2018-04-26T05:30:24.752Z,136.00
2018-04-26T05:31:24.929Z,132.00
2018-04-26T05:32:24.707Z,144.00
2018-04-26T05:33:24.836Z,164.00
2018-04-26T05:34:24.650Z,172.00
2018-04-26T05:35:24.746Z,188.00
2018-04-26T05:36:24.598Z,212.00
2018-04-26T05:37:24.762Z,224.00
2018-04-26T05:38:24.546Z,236.00
2018-04-26T05:39:24.681Z,256.00
2018-04-26T05:40:24.495Z,288.00
2018-04-26T05:41:24.588Z,328.00
2018-04-26T05:42:24.447Z,360.00
2018-04-26T05:43:24.598Z,400.00
2018-04-26T05:44:24.392Z,460.00
2018-04-26T05:45:24.511Z,532.00
2018-04-26T05:46:24.341Z,576.00
2018-04-26T05:47:24.570Z,576.00
2018-04-26T05:48:24.292Z,576.00
2018-04-26T05:49:24.436Z,616.00
2018-04-26T05:50:24.239Z,644.00
2018-04-26T05:51:24.350Z,700.00
2018-04-26T05:52:24.190Z,780.00
2018-04-26T05:53:24.362Z,692.00
2018-04-26T05:54:24.135Z,508.00
2018-04-26T05:55:24.176Z,492.00
2018-04-26T05:56:24.086Z,564.00
2018-04-26T05:57:24.087Z,608.00
2018-04-26T05:58:24.032Z,624.00
2018-04-26T05:59:24.100Z,620.00
2018-04-26T06:00:23.983Z,600.00
2018-04-26T06:01:24.008Z,576.00
2018-04-26T06:02:23.933Z,552.00
2018-04-26T06:03:24.028Z,488.00
2018-04-26T06:04:23.878Z,484.00
2018-04-26T06:05:23.934Z,540.00
2018-04-26T06:06:23.829Z,520.00
2018-04-26T06:07:23.845Z,440.00
2018-04-26T06:08:23.776Z,388.00
2018-04-26T06:09:23.863Z,368.00
2018-04-26T06:10:23.725Z,372.00
2018-04-26T06:11:23.811Z,364.00
2018-04-26T06:12:23.673Z,332.00
2018-04-26T06:13:23.786Z,292.00
2018-04-26T06:14:23.627Z,268.00
2018-04-26T06:15:23.703Z,260.00
2018-04-26T06:16:23.573Z,268.00
2018-04-26T06:17:23.609Z,276.00
2018-04-26T06:18:23.529Z,332.00
2018-04-26T06:19:23.623Z,360.00
2018-04-26T06:20:23.477Z,372.00
2018-04-26T06:21:23.534Z,432.00
2018-04-26T06:22:23.422Z,436.00
2018-04-26T06:23:23.446Z,452.00
2018-04-26T06:24:23.377Z,480.00
2018-04-26T06:25:23.460Z,556.00
2018-04-26T06:26:23.320Z,624.00
2018-04-26T06:27:23.373Z,640.00
2018-04-26T06:28:23.277Z,692.00
2018-04-26T06:29:23.386Z,756.00
2018-04-26T06:30:23.222Z,864.00
2018-04-26T06:31:23.298Z,952.00
2018-04-26T06:32:23.168Z,1012.00
2018-04-26T06:33:23.208Z,1088.00
2018-04-26T06:34:23.119Z,1184.00
2018-04-26T06:35:23.224Z,1232.00
2018-04-26T06:36:23.069Z,1276.00
2018-04-26T06:37:23.141Z,1248.00
2018-04-26T06:38:23.020Z,1208.00
2018-04-26T06:39:23.046Z,1272.00
2018-04-26T06:40:22.967Z,1060.00
2018-04-26T06:41:23.060Z,880.00
2018-04-26T06:42:22.983Z,740.00
2018-04-26T06:43:22.972Z,716.00
2018-04-26T06:44:22.867Z,752.00
2018-04-26T06:45:22.986Z,820.00
2018-04-26T06:46:22.817Z,880.00
2018-04-26T06:47:22.897Z,820.00
2018-04-26T06:48:22.766Z,832.00
2018-04-26T06:49:22.811Z,844.00
2018-04-26T06:50:22.715Z,812.00
2018-04-26T06:51:22.825Z,760.00
2018-04-26T06:52:22.669Z,752.00
2018-04-26T06:53:22.791Z,804.00
2018-04-26T06:54:22.615Z,856.00
2018-04-26T06:55:22.752Z,764.00
2018-04-26T06:56:22.566Z,816.00
2018-04-26T06:57:22.661Z,920.00
2018-04-26T06:58:22.519Z,856.00
2018-04-26T06:59:22.572Z,872.00
2018-04-26T07:00:22.532Z,836.00
2018-04-26T07:01:22.483Z,828.00
2018-04-26T07:02:22.416Z,924.00
2018-04-26T07:03:22.503Z,928.00
2018-04-26T07:04:22.365Z,972.00
2018-04-26T07:05:22.412Z,1044.00
2018-04-26T07:06:22.316Z,948.00
2018-04-26T07:07:22.295Z,860.00
2018-04-26T07:08:22.332Z,796.00
2018-04-26T07:09:22.239Z,948.00
2018-04-26T07:10:22.241Z,1068.00
2018-04-26T07:11:22.191Z,1096.00
2018-04-26T07:12:22.261Z,1176.00
2018-04-26T07:13:22.141Z,1348.00
2018-04-26T07:14:22.167Z,1392.00
2018-04-26T07:15:22.092Z,1304.00
2018-04-26T07:16:22.180Z,1364.00
2018-04-26T07:17:22.040Z,1376.00
2018-04-26T07:18:22.091Z,1352.00
2018-04-26T07:19:21.994Z,1412.00
2018-04-26T07:20:22.004Z,1668.00
2018-04-26T07:21:21.943Z,1804.00
2018-04-26T07:22:22.016Z,1960.00
2018-04-26T07:23:21.889Z,2048.00
2018-04-26T07:24:21.928Z,1956.00
2018-04-26T07:25:21.855Z,1864.00
2018-04-26T07:26:21.839Z,1504.00
2018-04-26T07:27:21.801Z,1132.00
2018-04-26T07:28:21.856Z,900.00
2018-04-26T07:29:21.744Z,808.00
2018-04-26T07:30:21.765Z,856.00
2018-04-26T07:31:21.691Z,1080.00
2018-04-26T07:32:21.795Z,1468.00
2018-04-26T07:33:21.654Z,1616.00
2018-04-26T07:34:21.689Z,1644.00
2018-04-26T07:35:21.598Z,1884.00
2018-04-26T07:36:21.603Z,1960.00
2018-04-26T07:37:21.547Z,2120.00
2018-04-26T07:38:21.616Z,2204.00
2018-04-26T07:39:21.497Z,2328.00
2018-04-26T07:40:21.530Z,2384.00
2018-04-26T07:41:21.451Z,2016.00
2018-04-26T07:42:21.449Z,1580.00
2018-04-26T07:43:21.401Z,1404.00
2018-04-26T07:44:21.456Z,1192.00
2018-04-26T07:45:21.353Z,1292.00
2018-04-26T07:46:21.339Z,1464.00
2018-04-26T07:47:21.303Z,1632.00
2018-04-26T07:48:21.380Z,1764.00
2018-04-26T07:49:21.253Z,1896.00
2018-04-26T07:50:21.292Z,1716.00
2018-04-26T07:51:21.206Z,1396.00
2018-04-26T07:52:21.204Z,1272.00
2018-04-26T07:53:21.156Z,1172.00
2018-04-26T07:54:21.217Z,1104.00
2018-04-26T07:55:21.107Z,1084.00
2018-04-26T07:56:21.130Z,1124.00
2018-04-26T07:57:21.064Z,1244.00
2018-04-26T07:58:21.142Z,1420.00
2018-04-26T07:59:21.012Z,1576.00
2018-04-26T08:00:21.055Z,1804.00
2018-04-26T08:01:20.961Z,1828.00
2018-04-26T08:02:20.965Z,1860.00
2018-04-26T08:03:20.916Z,1888.00
2018-04-26T08:04:20.978Z,1920.00
2018-04-26T08:05:20.874Z,1904.00
2018-04-26T08:06:20.891Z,1812.00
2018-04-26T08:07:20.874Z,1640.00
2018-04-26T08:08:20.904Z,1380.00
2018-04-26T08:09:20.767Z,1328.00
2018-04-26T08:10:20.816Z,1380.00
2018-04-26T08:11:20.716Z,1524.00
2018-04-26T08:12:20.729Z,1696.00
2018-04-26T08:13:20.670Z,1720.00
2018-04-26T08:14:20.743Z,1732.00
2018-04-26T08:15:20.618Z,1736.00
2018-04-26T08:16:20.654Z,1864.00
2018-04-26T08:17:20.573Z,1996.00
2018-04-26T08:18:20.567Z,2060.00
2018-04-26T08:19:20.528Z,2220.00
2018-04-26T08:20:20.580Z,2596.00
2018-04-26T08:21:20.475Z,2608.00
2018-04-26T08:22:20.494Z,2896.00
2018-04-26T08:23:20.426Z,2792.00
2018-04-26T08:24:20.507Z,2448.00
2018-04-26T08:25:20.376Z,2276.00
2018-04-26T08:26:20.427Z,2420.00
2018-04-26T08:27:20.328Z,2648.00
2018-04-26T08:28:20.328Z,2588.00
2018-04-26T08:29:20.282Z,2708.00
2018-04-26T08:30:20.343Z,2640.00
2018-04-26T08:31:20.232Z,2564.00
2018-04-26T08:32:20.258Z,2768.00
2018-04-26T08:33:20.182Z,2396.00
2018-04-26T08:34:20.272Z,2384.00
2018-04-26T08:35:20.135Z,2444.00
2018-04-26T08:36:20.186Z,2404.00
2018-04-26T08:37:20.090Z,2388.00
2018-04-26T08:38:20.093Z,2088.00
2018-04-26T08:39:20.045Z,2096.00
2018-04-26T08:40:20.106Z,1768.00
2018-04-26T08:41:19.992Z,1776.00
2018-04-26T08:42:20.019Z,1996.00
2018-04-26T08:43:19.944Z,2252.00
2018-04-26T08:44:20.032Z,2380.00
2018-04-26T08:45:19.899Z,2284.00
2018-04-26T08:46:19.943Z,2352.00
2018-04-26T08:47:19.850Z,1916.00
2018-04-26T08:48:19.857Z,1964.00
2018-04-26T08:49:19.812Z,2148.00
2018-04-26T08:50:19.870Z,2528.00
2018-04-26T08:51:19.753Z,2592.00
2018-04-26T08:52:19.860Z,2908.00
2018-04-26T08:53:19.709Z,2696.00
2018-04-26T08:54:19.800Z,2812.00
2018-04-26T08:55:19.658Z,3208.00
2018-04-26T08:56:19.707Z,3092.00
2018-04-26T08:57:19.615Z,3244.00
2018-04-26T08:58:19.617Z,2788.00
2018-04-26T08:59:19.569Z,2636.00
2018-04-26T09:00:19.635Z,2564.00
2018-04-26T09:01:19.520Z,2636.00
2018-04-26T09:02:19.545Z,2696.00
2018-04-26T09:03:19.475Z,2728.00
2018-04-26T09:04:19.560Z,2680.00
2018-04-26T09:05:19.425Z,2912.00
2018-04-26T09:06:19.470Z,3192.00
2018-04-26T09:07:19.376Z,3052.00
2018-04-26T09:08:19.380Z,3132.00
2018-04-26T09:09:19.330Z,2972.00
2018-04-26T09:10:19.395Z,2828.00
2018-04-26T09:11:19.284Z,2768.00
2018-04-26T09:12:19.306Z,2560.00
2018-04-26T09:13:19.237Z,2528.00
2018-04-26T09:14:19.320Z,2512.00
2018-04-26T09:15:19.191Z,2280.00
2018-04-26T09:16:19.231Z,2104.00
2018-04-26T09:17:19.147Z,1536.00
2018-04-26T09:18:19.144Z,1492.00
2018-04-26T09:19:19.096Z,1532.00
2018-04-26T09:20:19.157Z,1692.00
2018-04-26T09:21:19.165Z,1976.00
2018-04-26T09:22:19.029Z,2548.00
2018-04-26T09:23:19.075Z,2760.00
2018-04-26T09:24:18.981Z,2820.00
2018-04-26T09:25:18.989Z,2620.00
2018-04-26T09:26:18.936Z,2392.00
2018-04-26T09:27:19.002Z,2364.00
2018-04-26T09:28:18.888Z,2456.00
2018-04-26T09:29:18.912Z,2568.00
2018-04-26T09:30:18.846Z,2680.00
2018-04-26T09:31:18.928Z,2768.00
2018-04-26T09:32:18.796Z,3040.00
2018-04-26T09:33:18.841Z,3208.00
2018-04-26T09:34:18.750Z,2352.00
2018-04-26T09:35:18.750Z,2372.00
2018-04-26T09:36:18.707Z,1964.00
2018-04-26T09:37:18.760Z,2132.00
2018-04-26T09:38:18.663Z,2052.00
2018-04-26T09:39:18.675Z,2072.00
2018-04-26T09:40:18.611Z,1908.00
2018-04-26T09:41:18.693Z,1932.00
2018-04-26T09:42:18.574Z,2540.00
2018-04-26T09:43:18.601Z,2580.00
2018-04-26T09:44:18.510Z,2688.00
2018-04-26T09:45:18.519Z,2828.00
2018-04-26T09:46:18.476Z,2816.00
2018-04-26T09:47:18.527Z,2756.00
2018-04-26T09:48:18.434Z,3468.00
2018-04-26T09:49:18.439Z,2800.00
2018-04-26T09:50:18.383Z,2700.00
2018-04-26T09:51:18.454Z,2872.00
2018-04-26T09:52:18.336Z,3040.00
2018-04-26T09:53:18.367Z,3396.00
2018-04-26T09:54:18.290Z,2992.00
2018-04-26T09:55:18.382Z,3144.00
2018-04-26T09:56:18.247Z,3032.00
2018-04-26T09:57:18.291Z,2704.00
2018-04-26T09:58:18.200Z,2508.00
2018-04-26T09:59:18.201Z,2344.00
2018-04-26T10:00:18.153Z,2152.00
2018-04-26T10:01:18.217Z,1996.00
2018-04-26T10:02:18.111Z,2044.00
2018-04-26T10:03:18.136Z,2308.00
2018-04-26T10:04:18.069Z,2580.00
2018-04-26T10:05:18.142Z,2752.00
2018-04-26T10:06:18.018Z,2840.00
2018-04-26T10:07:18.056Z,3872.00
2018-04-26T10:08:17.973Z,3796.00
2018-04-26T10:09:17.968Z,2920.00
2018-04-26T10:10:17.929Z,2960.00
2018-04-26T10:11:17.979Z,3180.00
2018-04-26T10:12:17.881Z,2912.00
2018-04-26T10:13:17.890Z,2524.00
2018-04-26T10:14:17.836Z,2476.00
2018-04-26T10:15:17.903Z,2840.00
2018-04-26T10:16:17.789Z,3196.00
2018-04-26T10:17:17.815Z,3352.00
2018-04-26T10:18:17.746Z,3056.00
2018-04-26T10:19:17.828Z,3092.00
2018-04-26T10:20:17.699Z,3092.00
2018-04-26T10:21:17.740Z,3016.00
2018-04-26T10:22:17.656Z,3340.00
2018-04-26T10:23:17.655Z,3892.00
2018-04-26T10:24:17.611Z,3920.00
2018-04-26T10:25:17.667Z,3840.00
2018-04-26T10:26:17.564Z,3540.00
2018-04-26T10:27:17.578Z,2836.00
2018-04-26T10:28:17.521Z,2840.00
2018-04-26T10:29:17.592Z,3092.00
2018-04-26T10:30:17.477Z,3296.00
2018-04-26T10:31:17.502Z,3628.00
2018-04-26T10:32:17.438Z,3272.00
2018-04-26T10:33:17.517Z,3272.00
2018-04-26T10:34:17.391Z,3316.00
2018-04-26T10:35:17.442Z,3396.00
2018-04-26T10:36:17.347Z,3288.00
2018-04-26T10:37:17.342Z,3216.00
2018-04-26T10:38:17.298Z,3888.00
2018-04-26T10:39:17.364Z,3340.00
2018-04-26T10:40:17.256Z,3580.00
2018-04-26T10:41:17.273Z,4696.00
2018-04-26T10:42:17.210Z,3920.00
2018-04-26T10:43:17.286Z,3328.00
2018-04-26T10:44:17.177Z,3220.00
2018-04-26T10:45:17.193Z,2980.00
2018-04-26T10:46:17.125Z,2568.00
2018-04-26T10:47:17.213Z,2316.00
2018-04-26T10:48:17.079Z,2364.00
2018-04-26T10:49:17.120Z,2516.00
2018-04-26T10:50:17.040Z,2700.00
2018-04-26T10:51:17.032Z,2928.00
2018-04-26T10:52:16.994Z,3380.00
2018-04-26T10:53:17.044Z,4276.00
2018-04-26T10:54:16.948Z,4004.00
2018-04-26T10:55:16.958Z,4404.00
2018-04-26T10:56:16.906Z,4364.00
2018-04-26T10:57:16.976Z,4236.00
2018-04-26T10:58:16.863Z,4272.00
2018-04-26T10:59:16.880Z,4072.00
2018-04-26T11:00:16.820Z,3864.00
2018-04-26T11:01:16.897Z,3732.00
2018-04-26T11:02:16.785Z,3660.00
2018-04-26T11:03:16.814Z,4524.00
2018-04-26T11:04:16.731Z,4732.00
2018-04-26T11:05:16.837Z,3848.00
2018-04-26T11:06:16.685Z,4716.00
2018-04-26T11:07:16.733Z,3592.00
2018-04-26T11:08:16.644Z,4648.00
2018-04-26T11:09:16.736Z,4756.00
2018-04-26T11:10:16.604Z,4768.00
2018-04-26T11:11:16.745Z,4908.00
2018-04-26T11:12:16.558Z,4940.00
2018-04-26T11:13:16.568Z,5204.00
2018-04-26T11:14:16.513Z,5312.00
2018-04-26T11:15:16.583Z,5156.00
2018-04-26T11:16:16.469Z,5176.00
2018-04-26T11:17:16.502Z,5132.00
2018-04-26T11:18:16.428Z,5204.00
2018-04-26T11:19:16.508Z,5012.00
2018-04-26T11:20:16.386Z,4964.00
2018-04-26T11:21:16.463Z,4932.00
2018-04-26T11:22:16.343Z,4928.00
2018-04-26T11:23:16.332Z,3816.00
2018-04-26T11:24:16.300Z,3708.00
2018-04-26T11:25:16.351Z,3604.00
2018-04-26T11:26:16.260Z,4228.00
2018-04-26T11:27:16.260Z,3968.00
2018-04-26T11:28:16.219Z,4268.00
2018-04-26T11:29:16.301Z,4252.00
2018-04-26T11:30:16.177Z,3304.00
2018-04-26T11:31:16.199Z,2976.00
2018-04-26T11:32:16.137Z,2820.00
2018-04-26T11:33:16.214Z,2932.00
2018-04-26T11:34:16.091Z,3208.00
2018-04-26T11:35:16.113Z,3524.00
2018-04-26T11:36:16.048Z,3892.00
2018-04-26T11:37:16.126Z,4076.00
2018-04-26T11:38:16.009Z,3808.00
2018-04-26T11:39:16.033Z,3792.00
2018-04-26T11:40:16.048Z,3616.00
2018-04-26T11:41:16.049Z,3580.00
2018-04-26T11:42:15.920Z,3652.00
2018-04-26T11:43:15.963Z,3824.00
2018-04-26T11:44:15.880Z,4064.00
2018-04-26T11:45:15.874Z,5552.00
2018-04-26T11:46:15.835Z,5572.00
2018-04-26T11:47:15.888Z,4712.00
2018-04-26T11:48:15.794Z,4360.00
2018-04-26T11:49:15.801Z,4448.00
2018-04-26T11:50:15.751Z,5120.00
2018-04-26T11:51:15.814Z,4264.00
2018-04-26T11:52:15.718Z,4008.00
2018-04-26T11:53:15.726Z,3824.00
2018-04-26T11:54:15.666Z,3524.00
2018-04-26T11:55:15.740Z,3396.00
2018-04-26T11:56:15.649Z,3368.00
2018-04-26T11:57:15.650Z,4564.00
2018-04-26T11:58:15.587Z,4508.00
2018-04-26T11:59:15.664Z,4496.00
2018-04-26T12:00:15.546Z,4492.00
2018-04-26T12:01:15.582Z,3336.00
2018-04-26T12:02:15.551Z,4264.00
2018-04-26T12:03:15.490Z,4092.00
2018-04-26T12:04:15.455Z,2788.00
2018-04-26T12:05:15.515Z,3336.00
2018-04-26T12:06:15.413Z,3440.00
2018-04-26T12:07:15.416Z,4476.00
2018-04-26T12:08:15.372Z,3816.00
2018-04-26T12:09:15.432Z,4824.00
2018-04-26T12:10:15.329Z,4064.00
2018-04-26T12:11:15.339Z,4132.00
2018-04-26T12:12:15.282Z,4972.00
2018-04-26T12:13:15.386Z,4920.00
2018-04-26T12:14:15.247Z,4884.00
2018-04-26T12:15:15.266Z,4580.00
2018-04-26T12:16:15.203Z,3384.00
2018-04-26T12:17:15.280Z,3424.00
2018-04-26T12:18:15.163Z,4876.00
2018-04-26T12:19:15.196Z,4960.00
2018-04-26T12:20:15.120Z,4704.00
2018-04-26T12:21:15.206Z,4916.00
2018-04-26T12:22:15.081Z,3676.00
2018-04-26T12:23:15.059Z,4928.00
2018-04-26T12:24:15.039Z,3776.00
2018-04-26T12:25:15.130Z,3548.00
2018-04-26T12:26:15.002Z,2820.00
2018-04-26T12:27:15.045Z,2692.00
2018-04-26T12:28:15.050Z,2360.00
2018-04-26T12:29:15.001Z,2004.00
2018-04-26T12:30:14.965Z,1616.00
2018-04-26T12:31:14.894Z,1292.00
2018-04-26T12:32:14.976Z,1072.00
2018-04-26T12:33:14.855Z,968.00
2018-04-26T12:34:14.888Z,936.00